sensor_id;sensor_type;location;lat;lon;timestamp;P1;durP1;ratioP1;P2;durP2;ratioP2
2362;SDS011;64265;51.664;7.626;2023-11-21T00:00:46;4.53;;;2.27;;
2362;SDS011;64265;51.664;7.626;2023-11-21T00:03:13;3.80;;;2.43;;
2362;SDS011;64265;51.664;7.626;2023-11-21T00:05:40;11.10;;;2.43;;
2362;SDS011;64265;51.664;7.626;2023-11-21T00:08:07;4.33;;;2.83;;
2362;SDS011;64265;51.664;7.626;2023-11-21T00:10:34;4.47;;;2.57;;
2362;SDS011;64265;51.664;7.626;2023-11-21T00:13:03;4.13;;;3.23;;
2362;SDS011;64265;51.664;7.626;2023-11-21T00:15:30;3.43;;;2.57;;
2362;SDS011;64265;51.664;7.626;2023-11-21T00:17:58;4.13;;;2.27;;
2362;SDS011;64265;51.664;7.626;2023-11-21T00:20:24;5.30;;;3.03;;
2362;SDS011;64265;51.664;7.626;2023-11-21T00:22:51;4.00;;;2.30;;
2362;SDS011;64265;51.664;7.626;2023-11-21T00:25:18;5.67;;;2.40;;
2362;SDS011;64265;51.664;7.626;2023-11-21T00:27:45;5.40;;;2.40;;
2362;SDS011;64265;51.664;7.626;2023-11-21T00:30:12;2.77;;;2.40;;
2362;SDS011;64265;51.664;7.626;2023-11-21T00:32:39;5.47;;;2.37;;
2362;SDS011;64265;51.664;7.626;2023-11-21T00:35:08;3.50;;;2.10;;
2362;SDS011;64265;51.664;7.626;2023-11-21T00:37:35;4.80;;;2.80;;
2362;SDS011;64265;51.664;7.626;2023-11-21T00:40:04;3.07;;;2.10;;
2362;SDS011;64265;51.664;7.626;2023-11-21T00:42:32;4.13;;;1.90;;
2362;SDS011;64265;51.664;7.626;2023-11-21T00:44:59;3.50;;;2.70;;
2362;SDS011;64265;51.664;7.626;2023-11-21T00:47:26;3.23;;;2.10;;
2362;SDS011;64265;51.664;7.626;2023-11-21T00:49:53;3.40;;;1.90;;
2362;SDS011;64265;51.664;7.626;2023-11-21T00:52:21;4.67;;;2.30;;
2362;SDS011;64265;51.664;7.626;2023-11-21T00:54:47;3.77;;;2.73;;
2362;SDS011;64265;51.664;7.626;2023-11-21T00:57:14;2.90;;;2.60;;
2362;SDS011;64265;51.664;7.626;2023-11-21T00:59:41;2.60;;;1.90;;
2362;SDS011;64265;51.664;7.626;2023-11-21T01:02:08;2.50;;;1.80;;
2362;SDS011;64265;51.664;7.626;2023-11-21T01:04:35;4.20;;;2.63;;
2362;SDS011;64265;51.664;7.626;2023-11-21T01:07:02;3.20;;;2.17;;
2362;SDS011;64265;51.664;7.626;2023-11-21T01:09:31;3.67;;;1.97;;
2362;SDS011;64265;51.664;7.626;2023-11-21T01:11:58;3.07;;;2.20;;
2362;SDS011;64265;51.664;7.626;2023-11-21T01:14:26;4.13;;;2.47;;
2362;SDS011;64265;51.664;7.626;2023-11-21T01:16:53;2.93;;;1.90;;
2362;SDS011;64265;51.664;7.626;2023-11-21T01:19:19;2.60;;;2.10;;
2362;SDS011;64265;51.664;7.626;2023-11-21T01:21:46;3.53;;;2.23;;
2362;SDS011;64265;51.664;7.626;2023-11-21T01:24:13;4.90;;;2.60;;
2362;SDS011;64265;51.664;7.626;2023-11-21T01:26:41;5.60;;;2.30;;
2362;SDS011;64265;51.664;7.626;2023-11-21T01:29:08;4.17;;;2.40;;
2362;SDS011;64265;51.664;7.626;2023-11-21T01:31:35;3.47;;;1.90;;
2362;SDS011;64265;51.664;7.626;2023-11-21T01:34:01;2.00;;;1.67;;
2362;SDS011;64265;51.664;7.626;2023-11-21T01:36:31;3.07;;;1.93;;
2362;SDS011;64265;51.664;7.626;2023-11-21T01:38:58;2.67;;;1.80;;
2362;SDS011;64265;51.664;7.626;2023-11-21T01:41:25;3.03;;;2.40;;
2362;SDS011;64265;51.664;7.626;2023-11-21T01:43:54;3.07;;;1.93;;
2362;SDS011;64265;51.664;7.626;2023-11-21T01:46:21;3.30;;;2.00;;
2362;SDS011;64265;51.664;7.626;2023-11-21T01:48:49;4.17;;;2.00;;
2362;SDS011;64265;51.664;7.626;2023-11-21T01:51:16;4.13;;;1.75;;
2362;SDS011;64265;51.664;7.626;2023-11-21T01:53:44;6.25;;;2.20;;
2362;SDS011;64265;51.664;7.626;2023-11-21T01:56:11;3.67;;;2.00;;
2362;SDS011;64265;51.664;7.626;2023-11-21T01:58:39;3.20;;;2.13;;
2362;SDS011;64265;51.664;7.626;2023-11-21T02:01:07;2.58;;;1.63;;
2362;SDS011;64265;51.664;7.626;2023-11-21T02:03:34;3.25;;;2.30;;
2362;SDS011;64265;51.664;7.626;2023-11-21T02:06:01;3.17;;;2.53;;
2362;SDS011;64265;51.664;7.626;2023-11-21T02:08:28;2.13;;;1.90;;
2362;SDS011;64265;51.664;7.626;2023-11-21T02:10:55;3.40;;;2.47;;
2362;SDS011;64265;51.664;7.626;2023-11-21T02:13:22;2.77;;;1.80;;
2362;SDS011;64265;51.664;7.626;2023-11-21T02:15:49;2.47;;;1.67;;
2362;SDS011;64265;51.664;7.626;2023-11-21T02:18:18;2.90;;;2.47;;
2362;SDS011;64265;51.664;7.626;2023-11-21T02:20:47;3.45;;;2.30;;
2362;SDS011;64265;51.664;7.626;2023-11-21T02:23:15;2.00;;;1.80;;
2362;SDS011;64265;51.664;7.626;2023-11-21T02:25:43;3.20;;;2.28;;
2362;SDS011;64265;51.664;7.626;2023-11-21T02:28:09;2.83;;;2.00;;
2362;SDS011;64265;51.664;7.626;2023-11-21T02:30:37;3.80;;;2.40;;
2362;SDS011;64265;51.664;7.626;2023-11-21T02:33:03;2.33;;;2.03;;
2362;SDS011;64265;51.664;7.626;2023-11-21T02:35:31;5.82;;;1.90;;
2362;SDS011;64265;51.664;7.626;2023-11-21T02:37:58;3.10;;;2.80;;
2362;SDS011;64265;51.664;7.626;2023-11-21T02:40:26;1.80;;;1.70;;
2362;SDS011;64265;51.664;7.626;2023-11-21T02:42:52;2.63;;;1.70;;
2362;SDS011;64265;51.664;7.626;2023-11-21T02:45:20;1.97;;;1.77;;
2362;SDS011;64265;51.664;7.626;2023-11-21T02:47:47;3.60;;;1.50;;
2362;SDS011;64265;51.664;7.626;2023-11-21T02:50:15;2.80;;;1.83;;
2362;SDS011;64265;51.664;7.626;2023-11-21T02:52:44;2.23;;;2.00;;
2362;SDS011;64265;51.664;7.626;2023-11-21T02:55:11;4.93;;;2.17;;
2362;SDS011;64265;51.664;7.626;2023-11-21T02:57:39;2.03;;;1.53;;
2362;SDS011;64265;51.664;7.626;2023-11-21T03:00:06;1.90;;;1.70;;
2362;SDS011;64265;51.664;7.626;2023-11-21T03:02:34;2.60;;;1.77;;
2362;SDS011;64265;51.664;7.626;2023-11-21T03:05:04;1.90;;;1.80;;
2362;SDS011;64265;51.664;7.626;2023-11-21T03:07:32;2.22;;;1.92;;
2362;SDS011;64265;51.664;7.626;2023-11-21T03:09:58;2.67;;;2.47;;
2362;SDS011;64265;51.664;7.626;2023-11-21T03:12:25;1.83;;;1.57;;
2362;SDS011;64265;51.664;7.626;2023-11-21T03:14:53;2.00;;;1.60;;
2362;SDS011;64265;51.664;7.626;2023-11-21T03:17:20;2.70;;;1.75;;
2362;SDS011;64265;51.664;7.626;2023-11-21T03:19:47;2.00;;;1.80;;
2362;SDS011;64265;51.664;7.626;2023-11-21T03:22:13;3.58;;;1.75;;
2362;SDS011;64265;51.664;7.626;2023-11-21T03:24:40;2.87;;;1.70;;
2362;SDS011;64265;51.664;7.626;2023-11-21T03:27:07;1.97;;;1.67;;
2362;SDS011;64265;51.664;7.626;2023-11-21T03:29:34;2.37;;;2.03;;
2362;SDS011;64265;51.664;7.626;2023-11-21T03:32:02;1.70;;;1.60;;
2362;SDS011;64265;51.664;7.626;2023-11-21T03:34:29;1.70;;;1.60;;
2362;SDS011;64265;51.664;7.626;2023-11-21T03:36:56;2.00;;;1.88;;
2362;SDS011;64265;51.664;7.626;2023-11-21T03:39:23;2.92;;;1.75;;
2362;SDS011;64265;51.664;7.626;2023-11-21T03:41:50;2.63;;;2.00;;
2362;SDS011;64265;51.664;7.626;2023-11-21T03:44:17;1.70;;;1.40;;
2362;SDS011;64265;51.664;7.626;2023-11-21T03:46:44;2.55;;;1.40;;
2362;SDS011;64265;51.664;7.626;2023-11-21T03:49:12;2.43;;;1.67;;
2362;SDS011;64265;51.664;7.626;2023-11-21T03:51:39;1.83;;;1.60;;
2362;SDS011;64265;51.664;7.626;2023-11-21T03:54:06;1.80;;;1.50;;
2362;SDS011;64265;51.664;7.626;2023-11-21T03:56:32;2.30;;;1.77;;
2362;SDS011;64265;51.664;7.626;2023-11-21T03:59:02;2.53;;;2.00;;
2362;SDS011;64265;51.664;7.626;2023-11-21T04:01:29;1.50;;;1.40;;
2362;SDS011;64265;51.664;7.626;2023-11-21T04:03:55;1.60;;;1.20;;
2362;SDS011;64265;51.664;7.626;2023-11-21T04:06:23;2.75;;;2.10;;
2362;SDS011;64265;51.664;7.626;2023-11-21T04:08:50;2.17;;;1.55;;
2362;SDS011;64265;51.664;7.626;2023-11-21T04:11:17;2.05;;;1.65;;
2362;SDS011;64265;51.664;7.626;2023-11-21T04:13:44;2.10;;;1.73;;
2362;SDS011;64265;51.664;7.626;2023-11-21T04:16:11;1.60;;;1.50;;
2362;SDS011;64265;51.664;7.626;2023-11-21T04:18:38;3.03;;;2.10;;
2362;SDS011;64265;51.664;7.626;2023-11-21T04:21:05;1.67;;;1.27;;
2362;SDS011;64265;51.664;7.626;2023-11-21T04:23:34;1.60;;;1.43;;
2362;SDS011;64265;51.664;7.626;2023-11-21T04:26:01;2.72;;;1.90;;
2362;SDS011;64265;51.664;7.626;2023-11-21T04:28:28;1.70;;;1.40;;
2362;SDS011;64265;51.664;7.626;2023-11-21T04:30:55;2.38;;;1.42;;
2362;SDS011;64265;51.664;7.626;2023-11-21T04:33:22;5.55;;;1.90;;
2362;SDS011;64265;51.664;7.626;2023-11-21T04:35:50;2.27;;;1.90;;
2362;SDS011;64265;51.664;7.626;2023-11-21T04:38:17;5.55;;;1.88;;
2362;SDS011;64265;51.664;7.626;2023-11-21T04:40:45;2.17;;;1.63;;
2362;SDS011;64265;51.664;7.626;2023-11-21T04:43:12;2.20;;;1.85;;
2362;SDS011;64265;51.664;7.626;2023-11-21T04:45:38;3.50;;;1.70;;
2362;SDS011;64265;51.664;7.626;2023-11-21T04:48:06;2.50;;;1.80;;
2362;SDS011;64265;51.664;7.626;2023-11-21T04:50:33;2.53;;;1.60;;
2362;SDS011;64265;51.664;7.626;2023-11-21T04:53:00;1.90;;;1.75;;
2362;SDS011;64265;51.664;7.626;2023-11-21T04:55:26;2.17;;;1.97;;
2362;SDS011;64265;51.664;7.626;2023-11-21T04:57:55;1.73;;;1.63;;
2362;SDS011;64265;51.664;7.626;2023-11-21T05:00:22;1.80;;;1.50;;
2362;SDS011;64265;51.664;7.626;2023-11-21T05:02:48;2.30;;;1.67;;
2362;SDS011;64265;51.664;7.626;2023-11-21T05:05:15;1.40;;;1.30;;
2362;SDS011;64265;51.664;7.626;2023-11-21T05:07:42;1.83;;;1.52;;
2362;SDS011;64265;51.664;7.626;2023-11-21T05:10:09;3.80;;;1.60;;
2362;SDS011;64265;51.664;7.626;2023-11-21T05:12:37;2.00;;;1.43;;
2362;SDS011;64265;51.664;7.626;2023-11-21T05:15:06;2.08;;;1.60;;
2362;SDS011;64265;51.664;7.626;2023-11-21T05:17:35;2.53;;;1.88;;
2362;SDS011;64265;51.664;7.626;2023-11-21T05:20:04;2.50;;;1.70;;
2362;SDS011;64265;51.664;7.626;2023-11-21T05:22:33;2.30;;;2.00;;
2362;SDS011;64265;51.664;7.626;2023-11-21T05:25:00;2.20;;;1.30;;
2362;SDS011;64265;51.664;7.626;2023-11-21T05:27:28;2.50;;;1.48;;
2362;SDS011;64265;51.664;7.626;2023-11-21T05:29:54;1.40;;;1.10;;
2362;SDS011;64265;51.664;7.626;2023-11-21T05:32:22;2.15;;;1.92;;
2362;SDS011;64265;51.664;7.626;2023-11-21T05:34:49;1.70;;;1.50;;
2362;SDS011;64265;51.664;7.626;2023-11-21T05:37:16;1.75;;;1.38;;
2362;SDS011;64265;51.664;7.626;2023-11-21T05:39:43;1.50;;;1.40;;
2362;SDS011;64265;51.664;7.626;2023-11-21T05:42:10;1.80;;;1.38;;
2362;SDS011;64265;51.664;7.626;2023-11-21T05:44:36;4.45;;;1.45;;
2362;SDS011;64265;51.664;7.626;2023-11-21T05:47:07;2.00;;;1.48;;
2362;SDS011;64265;51.664;7.626;2023-11-21T05:49:35;10.25;;;1.83;;
2362;SDS011;64265;51.664;7.626;2023-11-21T05:52:02;2.85;;;1.25;;
2362;SDS011;64265;51.664;7.626;2023-11-21T05:54:30;4.32;;;2.22;;
2362;SDS011;64265;51.664;7.626;2023-11-21T05:56:57;3.50;;;1.80;;
2362;SDS011;64265;51.664;7.626;2023-11-21T05:59:24;5.97;;;1.30;;
2362;SDS011;64265;51.664;7.626;2023-11-21T06:01:51;1.50;;;1.25;;
2362;SDS011;64265;51.664;7.626;2023-11-21T06:04:18;1.77;;;1.65;;
2362;SDS011;64265;51.664;7.626;2023-11-21T06:06:50;2.00;;;1.60;;
2362;SDS011;64265;51.664;7.626;2023-11-21T06:09:17;2.20;;;1.50;;
2362;SDS011;64265;51.664;7.626;2023-11-21T06:11:44;1.67;;;1.30;;
2362;SDS011;64265;51.664;7.626;2023-11-21T06:14:11;1.90;;;1.40;;
2362;SDS011;64265;51.664;7.626;2023-11-21T06:16:38;1.83;;;1.20;;
2362;SDS011;64265;51.664;7.626;2023-11-21T06:19:05;3.20;;;1.50;;
2362;SDS011;64265;51.664;7.626;2023-11-21T06:21:32;2.20;;;1.42;;
2362;SDS011;64265;51.664;7.626;2023-11-21T06:24:00;1.90;;;1.40;;
2362;SDS011;64265;51.664;7.626;2023-11-21T06:26:27;1.97;;;1.33;;
2362;SDS011;64265;51.664;7.626;2023-11-21T06:28:53;1.67;;;1.50;;
2362;SDS011;64265;51.664;7.626;2023-11-21T06:31:22;1.90;;;1.73;;
2362;SDS011;64265;51.664;7.626;2023-11-21T06:33:48;1.40;;;1.27;;
2362;SDS011;64265;51.664;7.626;2023-11-21T06:36:17;1.90;;;1.20;;
2362;SDS011;64265;51.664;7.626;2023-11-21T06:38:43;1.90;;;1.40;;
2362;SDS011;64265;51.664;7.626;2023-11-21T06:41:12;2.10;;;1.40;;
2362;SDS011;64265;51.664;7.626;2023-11-21T06:43:40;3.83;;;1.30;;
2362;SDS011;64265;51.664;7.626;2023-11-21T06:46:10;1.70;;;1.17;;
2362;SDS011;64265;51.664;7.626;2023-11-21T06:48:39;1.40;;;1.30;;
2362;SDS011;64265;51.664;7.626;2023-11-21T06:51:06;1.77;;;1.37;;
2362;SDS011;64265;51.664;7.626;2023-11-21T06:53:33;2.17;;;1.50;;
2362;SDS011;64265;51.664;7.626;2023-11-21T06:56:00;1.37;;;1.27;;
2362;SDS011;64265;51.664;7.626;2023-11-21T06:58:28;4.40;;;1.53;;
2362;SDS011;64265;51.664;7.626;2023-11-21T07:00:55;1.40;;;1.20;;
2362;SDS011;64265;51.664;7.626;2023-11-21T07:03:23;1.60;;;1.43;;
2362;SDS011;64265;51.664;7.626;2023-11-21T07:05:51;1.30;;;1.00;;
2362;SDS011;64265;51.664;7.626;2023-11-21T07:08:17;1.70;;;1.60;;
2362;SDS011;64265;51.664;7.626;2023-11-21T07:10:44;1.93;;;1.43;;
2362;SDS011;64265;51.664;7.626;2023-11-21T07:13:12;1.80;;;1.50;;
2362;SDS011;64265;51.664;7.626;2023-11-21T07:15:40;2.10;;;1.37;;
2362;SDS011;64265;51.664;7.626;2023-11-21T07:18:07;1.87;;;1.40;;
2362;SDS011;64265;51.664;7.626;2023-11-21T07:20:34;1.20;;;1.00;;
2362;SDS011;64265;51.664;7.626;2023-11-21T07:23:00;1.30;;;1.10;;
2362;SDS011;64265;51.664;7.626;2023-11-21T07:25:29;1.57;;;1.40;;
2362;SDS011;64265;51.664;7.626;2023-11-21T07:27:55;1.67;;;1.30;;
2362;SDS011;64265;51.664;7.626;2023-11-21T07:30:22;1.27;;;1.10;;
2362;SDS011;64265;51.664;7.626;2023-11-21T07:32:50;1.50;;;1.40;;
2362;SDS011;64265;51.664;7.626;2023-11-21T07:35:17;2.60;;;1.77;;
2362;SDS011;64265;51.664;7.626;2023-11-21T07:37:43;2.03;;;1.60;;
2362;SDS011;64265;51.664;7.626;2023-11-21T07:40:12;2.00;;;1.13;;
2362;SDS011;64265;51.664;7.626;2023-11-21T07:42:39;1.80;;;1.43;;
2362;SDS011;64265;51.664;7.626;2023-11-21T07:45:08;1.67;;;1.50;;
2362;SDS011;64265;51.664;7.626;2023-11-21T07:47:35;1.40;;;1.30;;
2362;SDS011;64265;51.664;7.626;2023-11-21T07:50:03;1.73;;;1.63;;
2362;SDS011;64265;51.664;7.626;2023-11-21T07:52:32;1.97;;;1.50;;
2362;SDS011;64265;51.664;7.626;2023-11-21T07:54:59;1.80;;;1.60;;
2362;SDS011;64265;51.664;7.626;2023-11-21T07:57:26;3.10;;;1.43;;
2362;SDS011;64265;51.664;7.626;2023-11-21T07:59:53;2.13;;;1.80;;
2362;SDS011;64265;51.664;7.626;2023-11-21T08:02:20;4.60;;;2.23;;
2362;SDS011;64265;51.664;7.626;2023-11-21T08:04:47;16.43;;;11.03;;
2362;SDS011;64265;51.664;7.626;2023-11-21T08:07:16;16.80;;;11.13;;
2362;SDS011;64265;51.664;7.626;2023-11-21T08:09:43;17.23;;;11.17;;
2362;SDS011;64265;51.664;7.626;2023-11-21T08:12:11;17.80;;;12.37;;
2362;SDS011;64265;51.664;7.626;2023-11-21T08:14:39;19.30;;;11.60;;
2362;SDS011;64265;51.664;7.626;2023-11-21T08:17:06;21.93;;;11.67;;
2362;SDS011;64265;51.664;7.626;2023-11-21T08:19:35;23.03;;;13.10;;
2362;SDS011;64265;51.664;7.626;2023-11-21T08:22:03;15.77;;;11.85;;
2362;SDS011;64265;51.664;7.626;2023-11-21T08:24:34;21.58;;;11.23;;
2362;SDS011;64265;51.664;7.626;2023-11-21T08:27:00;15.50;;;9.93;;
2362;SDS011;64265;51.664;7.626;2023-11-21T08:29:29;13.57;;;7.37;;
2362;SDS011;64265;51.664;7.626;2023-11-21T08:31:56;12.10;;;8.25;;
2362;SDS011;64265;51.664;7.626;2023-11-21T08:34:24;10.60;;;6.72;;
2362;SDS011;64265;51.664;7.626;2023-11-21T08:36:51;13.33;;;6.20;;
2362;SDS011;64265;51.664;7.626;2023-11-21T08:39:18;6.80;;;5.50;;
2362;SDS011;64265;51.664;7.626;2023-11-21T08:41:46;8.80;;;5.33;;
2362;SDS011;64265;51.664;7.626;2023-11-21T08:44:13;6.90;;;4.53;;
2362;SDS011;64265;51.664;7.626;2023-11-21T08:46:41;5.67;;;4.37;;
2362;SDS011;64265;51.664;7.626;2023-11-21T08:49:10;5.60;;;3.80;;
2362;SDS011;64265;51.664;7.626;2023-11-21T08:51:36;6.63;;;3.50;;
2362;SDS011;64265;51.664;7.626;2023-11-21T08:54:04;5.60;;;4.07;;
2362;SDS011;64265;51.664;7.626;2023-11-21T08:56:33;4.73;;;3.93;;
2362;SDS011;64265;51.664;7.626;2023-11-21T08:59:01;5.00;;;3.90;;
2362;SDS011;64265;51.664;7.626;2023-11-21T09:01:28;7.80;;;3.80;;
2362;SDS011;64265;51.664;7.626;2023-11-21T09:03:56;6.10;;;3.70;;
2362;SDS011;64265;51.664;7.626;2023-11-21T09:06:22;5.83;;;3.87;;
2362;SDS011;64265;51.664;7.626;2023-11-21T09:08:49;3.70;;;3.03;;
2362;SDS011;64265;51.664;7.626;2023-11-21T09:11:16;6.70;;;4.20;;
2362;SDS011;64265;51.664;7.626;2023-11-21T09:13:43;4.80;;;3.00;;
2362;SDS011;64265;51.664;7.626;2023-11-21T09:16:13;3.47;;;2.83;;
2362;SDS011;64265;51.664;7.626;2023-11-21T09:18:40;6.20;;;3.40;;
2362;SDS011;64265;51.664;7.626;2023-11-21T09:21:07;5.80;;;2.87;;
2362;SDS011;64265;51.664;7.626;2023-11-21T09:23:34;7.67;;;3.03;;
2362;SDS011;64265;51.664;7.626;2023-11-21T09:26:01;5.80;;;2.70;;
2362;SDS011;64265;51.664;7.626;2023-11-21T09:28:28;4.57;;;2.60;;
2362;SDS011;64265;51.664;7.626;2023-11-21T09:30:55;5.03;;;2.70;;
2362;SDS011;64265;51.664;7.626;2023-11-21T09:33:23;6.17;;;2.90;;
2362;SDS011;64265;51.664;7.626;2023-11-21T09:35:50;4.90;;;2.90;;
2362;SDS011;64265;51.664;7.626;2023-11-21T09:38:17;3.83;;;2.20;;
2362;SDS011;64265;51.664;7.626;2023-11-21T09:40:44;4.70;;;2.20;;
2362;SDS011;64265;51.664;7.626;2023-11-21T09:43:16;3.20;;;2.50;;
2362;SDS011;64265;51.664;7.626;2023-11-21T09:45:44;3.30;;;2.10;;
2362;SDS011;64265;51.664;7.626;2023-11-21T09:48:13;4.27;;;2.80;;
2362;SDS011;64265;51.664;7.626;2023-11-21T09:50:42;3.23;;;2.93;;
2362;SDS011;64265;51.664;7.626;2023-11-21T09:53:12;3.47;;;2.60;;
2362;SDS011;64265;51.664;7.626;2023-11-21T09:55:43;4.60;;;3.30;;
2362;SDS011;64265;51.664;7.626;2023-11-21T09:58:11;2.30;;;2.10;;
2362;SDS011;64265;51.664;7.626;2023-11-21T10:00:40;4.13;;;2.60;;
2362;SDS011;64265;51.664;7.626;2023-11-21T10:03:07;2.80;;;1.93;;
2362;SDS011;64265;51.664;7.626;2023-11-21T10:05:34;3.20;;;2.37;;
2362;SDS011;64265;51.664;7.626;2023-11-21T10:08:03;3.00;;;1.97;;
2362;SDS011;64265;51.664;7.626;2023-11-21T10:10:33;7.87;;;2.33;;
2362;SDS011;64265;51.664;7.626;2023-11-21T10:13:01;4.50;;;2.90;;
2362;SDS011;64265;51.664;7.626;2023-11-21T10:15:31;2.47;;;2.27;;
2362;SDS011;64265;51.664;7.626;2023-11-21T10:18:01;4.63;;;2.13;;
2362;SDS011;64265;51.664;7.626;2023-11-21T10:20:29;2.87;;;2.10;;
2362;SDS011;64265;51.664;7.626;2023-11-21T10:22:58;2.57;;;2.00;;
2362;SDS011;64265;51.664;7.626;2023-11-21T10:25:29;2.47;;;2.27;;
2362;SDS011;64265;51.664;7.626;2023-11-21T10:27:57;2.37;;;2.07;;
2362;SDS011;64265;51.664;7.626;2023-11-21T10:30:27;3.83;;;2.23;;
2362;SDS011;64265;51.664;7.626;2023-11-21T10:32:58;2.40;;;2.20;;
2362;SDS011;64265;51.664;7.626;2023-11-21T10:35:38;2.43;;;2.17;;
2362;SDS011;64265;51.664;7.626;2023-11-21T10:38:05;4.67;;;1.90;;
2362;SDS011;64265;51.664;7.626;2023-11-21T10:40:36;2.27;;;2.07;;
2362;SDS011;64265;51.664;7.626;2023-11-21T10:43:06;2.53;;;1.80;;
2362;SDS011;64265;51.664;7.626;2023-11-21T10:45:34;2.20;;;1.97;;
2362;SDS011;64265;51.664;7.626;2023-11-21T10:48:04;2.20;;;1.90;;
2362;SDS011;64265;51.664;7.626;2023-11-21T10:50:33;3.00;;;1.60;;
2362;SDS011;64265;51.664;7.626;2023-11-21T10:53:01;5.50;;;2.30;;
2362;SDS011;64265;51.664;7.626;2023-11-21T10:55:28;2.77;;;2.20;;
2362;SDS011;64265;51.664;7.626;2023-11-21T10:57:58;2.53;;;1.90;;
2362;SDS011;64265;51.664;7.626;2023-11-21T11:00:27;1.87;;;1.30;;
2362;SDS011;64265;51.664;7.626;2023-11-21T11:02:54;2.50;;;2.10;;
2362;SDS011;64265;51.664;7.626;2023-11-21T11:05:22;1.97;;;1.73;;
2362;SDS011;64265;51.664;7.626;2023-11-21T11:07:51;2.70;;;1.37;;
2362;SDS011;64265;51.664;7.626;2023-11-21T11:10:24;2.10;;;1.90;;
2362;SDS011;64265;51.664;7.626;2023-11-21T11:12:53;1.80;;;1.60;;
2362;SDS011;64265;51.664;7.626;2023-11-21T11:15:21;2.40;;;2.00;;
2362;SDS011;64265;51.664;7.626;2023-11-21T11:17:49;2.40;;;2.10;;
2362;SDS011;64265;51.664;7.626;2023-11-21T11:20:16;2.30;;;2.10;;
2362;SDS011;64265;51.664;7.626;2023-11-21T11:22:48;3.50;;;1.93;;
2362;SDS011;64265;51.664;7.626;2023-11-21T11:25:30;2.00;;;1.80;;
2362;SDS011;64265;51.664;7.626;2023-11-21T11:28:10;2.20;;;2.00;;
2362;SDS011;64265;51.664;7.626;2023-11-21T11:30:43;1.50;;;1.40;;
2362;SDS011;64265;51.664;7.626;2023-11-21T11:33:22;2.77;;;1.90;;
2362;SDS011;64265;51.664;7.626;2023-11-21T11:36:00;2.20;;;1.97;;
2362;SDS011;64265;51.664;7.626;2023-11-21T11:38:33;2.10;;;1.90;;
2362;SDS011;64265;51.664;7.626;2023-11-21T11:41:01;1.47;;;1.37;;
2362;SDS011;64265;51.664;7.626;2023-11-21T11:43:29;2.73;;;1.73;;
2362;SDS011;64265;51.664;7.626;2023-11-21T11:45:59;2.17;;;1.80;;
2362;SDS011;64265;51.664;7.626;2023-11-21T11:48:29;4.50;;;1.70;;
2362;SDS011;64265;51.664;7.626;2023-11-21T11:51:01;1.80;;;1.70;;
2362;SDS011;64265;51.664;7.626;2023-11-21T11:53:37;1.57;;;1.30;;
2362;SDS011;64265;51.664;7.626;2023-11-21T11:56:19;2.00;;;1.80;;
2362;SDS011;64265;51.664;7.626;2023-11-21T11:58:51;1.70;;;1.40;;
2362;SDS011;64265;51.664;7.626;2023-11-21T12:01:20;2.97;;;1.70;;
2362;SDS011;64265;51.664;7.626;2023-11-21T12:06:55;5.20;;;3.20;;
2362;SDS011;64265;51.664;7.626;2023-11-21T12:09:25;1.87;;;1.47;;
2362;SDS011;64265;51.664;7.626;2023-11-21T12:11:52;3.87;;;2.10;;
2362;SDS011;64265;51.664;7.626;2023-11-21T12:14:21;3.50;;;1.60;;
2362;SDS011;64265;51.664;7.626;2023-11-21T12:16:50;2.40;;;1.70;;
2362;SDS011;64265;51.664;7.626;2023-11-21T12:19:18;1.90;;;1.50;;
2362;SDS011;64265;51.664;7.626;2023-11-21T12:21:46;2.90;;;1.97;;
2362;SDS011;64265;51.664;7.626;2023-11-21T12:24:15;4.47;;;1.90;;
2362;SDS011;64265;51.664;7.626;2023-11-21T12:26:42;7.10;;;1.60;;
2362;SDS011;64265;51.664;7.626;2023-11-21T12:29:09;2.00;;;1.80;;
2362;SDS011;64265;51.664;7.626;2023-11-21T12:31:36;1.87;;;1.43;;
2362;SDS011;64265;51.664;7.626;2023-11-21T12:34:04;3.00;;;1.50;;
2362;SDS011;64265;51.664;7.626;2023-11-21T12:36:31;2.00;;;1.70;;
2362;SDS011;64265;51.664;7.626;2023-11-21T12:38:59;2.97;;;1.70;;
2362;SDS011;64265;51.664;7.626;2023-11-21T12:41:27;2.03;;;1.70;;
2362;SDS011;64265;51.664;7.626;2023-11-21T12:43:55;1.50;;;1.37;;
2362;SDS011;64265;51.664;7.626;2023-11-21T12:46:22;3.63;;;1.60;;
2362;SDS011;64265;51.664;7.626;2023-11-21T12:48:51;5.23;;;1.67;;
2362;SDS011;64265;51.664;7.626;2023-11-21T12:51:19;1.43;;;1.27;;
2362;SDS011;64265;51.664;7.626;2023-11-21T12:53:47;1.90;;;1.70;;
2362;SDS011;64265;51.664;7.626;2023-11-21T12:56:15;1.53;;;1.43;;
2362;SDS011;64265;51.664;7.626;2023-11-21T12:58:43;1.93;;;1.70;;
2362;SDS011;64265;51.664;7.626;2023-11-21T13:01:12;2.17;;;1.63;;
2362;SDS011;64265;51.664;7.626;2023-11-21T13:03:43;6.93;;;1.87;;
2362;SDS011;64265;51.664;7.626;2023-11-21T13:06:13;1.93;;;1.53;;
2362;SDS011;64265;51.664;7.626;2023-11-21T13:08:43;1.77;;;1.67;;
2362;SDS011;64265;51.664;7.626;2023-11-21T13:11:11;3.00;;;1.60;;
2362;SDS011;64265;51.664;7.626;2023-11-21T13:13:40;2.50;;;1.27;;
2362;SDS011;64265;51.664;7.626;2023-11-21T13:16:08;1.47;;;1.20;;
2362;SDS011;64265;51.664;7.626;2023-11-21T13:18:35;2.43;;;1.50;;
2362;SDS011;64265;51.664;7.626;2023-11-21T13:21:03;1.60;;;1.37;;
2362;SDS011;64265;51.664;7.626;2023-11-21T13:23:35;2.10;;;1.60;;
2362;SDS011;64265;51.664;7.626;2023-11-21T13:26:04;2.43;;;1.60;;
2362;SDS011;64265;51.664;7.626;2023-11-21T13:28:32;2.50;;;1.73;;
2362;SDS011;64265;51.664;7.626;2023-11-21T13:30:59;6.23;;;1.83;;
2362;SDS011;64265;51.664;7.626;2023-11-21T13:33:29;3.93;;;2.20;;
2362;SDS011;64265;51.664;7.626;2023-11-21T13:35:58;2.00;;;1.30;;
2362;SDS011;64265;51.664;7.626;2023-11-21T13:38:26;1.50;;;1.40;;
2362;SDS011;64265;51.664;7.626;2023-11-21T13:40:58;2.50;;;1.43;;
2362;SDS011;64265;51.664;7.626;2023-11-21T13:43:26;1.57;;;1.47;;
2362;SDS011;64265;51.664;7.626;2023-11-21T13:45:54;1.93;;;1.60;;
2362;SDS011;64265;51.664;7.626;2023-11-21T13:48:25;2.17;;;1.87;;
2362;SDS011;64265;51.664;7.626;2023-11-21T13:50:57;3.77;;;1.57;;
2362;SDS011;64265;51.664;7.626;2023-11-21T13:53:27;2.37;;;1.53;;
2362;SDS011;64265;51.664;7.626;2023-11-21T13:55:54;3.57;;;1.43;;
2362;SDS011;64265;51.664;7.626;2023-11-21T13:58:23;2.00;;;1.50;;
2362;SDS011;64265;51.664;7.626;2023-11-21T14:01:01;3.07;;;2.00;;
2362;SDS011;64265;51.664;7.626;2023-11-21T14:03:31;3.80;;;1.67;;
2362;SDS011;64265;51.664;7.626;2023-11-21T14:06:05;2.77;;;2.07;;
2362;SDS011;64265;51.664;7.626;2023-11-21T14:08:39;1.57;;;1.47;;
2362;SDS011;64265;51.664;7.626;2023-11-21T14:11:06;2.30;;;2.10;;
2362;SDS011;64265;51.664;7.626;2023-11-21T14:13:36;6.80;;;2.10;;
2362;SDS011;64265;51.664;7.626;2023-11-21T14:16:04;2.17;;;1.50;;
2362;SDS011;64265;51.664;7.626;2023-11-21T14:18:31;3.20;;;2.10;;
2362;SDS011;64265;51.664;7.626;2023-11-21T14:21:03;2.23;;;1.80;;
2362;SDS011;64265;51.664;7.626;2023-11-21T14:23:30;3.60;;;1.90;;
2362;SDS011;64265;51.664;7.626;2023-11-21T14:26:00;1.97;;;1.77;;
2362;SDS011;64265;51.664;7.626;2023-11-21T14:28:27;1.60;;;1.50;;
2362;SDS011;64265;51.664;7.626;2023-11-21T14:30:54;2.83;;;1.73;;
2362;SDS011;64265;51.664;7.626;2023-11-21T14:33:22;1.40;;;1.30;;
2362;SDS011;64265;51.664;7.626;2023-11-21T14:35:49;2.47;;;1.90;;
2362;SDS011;64265;51.664;7.626;2023-11-21T14:38:16;1.40;;;1.30;;
2362;SDS011;64265;51.664;7.626;2023-11-21T14:40:43;1.60;;;1.40;;
2362;SDS011;64265;51.664;7.626;2023-11-21T14:43:10;1.50;;;1.37;;
2362;SDS011;64265;51.664;7.626;2023-11-21T14:45:38;1.73;;;1.63;;
2362;SDS011;64265;51.664;7.626;2023-11-21T14:48:04;1.83;;;1.30;;
2362;SDS011;64265;51.664;7.626;2023-11-21T14:50:35;1.90;;;1.80;;
2362;SDS011;64265;51.664;7.626;2023-11-21T14:53:14;1.90;;;1.60;;
2362;SDS011;64265;51.664;7.626;2023-11-21T14:55:40;2.60;;;2.00;;
2362;SDS011;64265;51.664;7.626;2023-11-21T14:58:21;3.10;;;1.80;;
2362;SDS011;64265;51.664;7.626;2023-11-21T15:00:52;3.03;;;1.30;;
2362;SDS011;64265;51.664;7.626;2023-11-21T15:03:23;1.50;;;1.40;;
2362;SDS011;64265;51.664;7.626;2023-11-21T15:06:09;3.50;;;1.50;;
2362;SDS011;64265;51.664;7.626;2023-11-21T15:08:51;1.87;;;1.30;;